sensor_id;sensor_type;location;lat;lon;timestamp;pressure;altitude;pressure_sealevel;temperature
24639;BMP180;1641;51.306;12.384;2022-09-09T00:04:35;99727.00;;;17.90
24639;BMP180;1641;51.306;12.384;2022-09-09T00:07:13;99728.00;;;18.10
24639;BMP180;1641;51.306;12.384;2022-09-09T00:09:49;99731.00;;;18.00
24639;BMP180;1641;51.306;12.384;2022-09-09T00:14:56;99685.00;;;17.80
24639;BMP180;1641;51.306;12.384;2022-09-09T00:17:36;99739.00;;;17.90
24639;BMP180;1641;51.306;12.384;2022-09-09T00:20:23;99744.00;;;17.80
24639;BMP180;1641;51.306;12.384;2022-09-09T00:24:15;99740.00;;;17.90
24639;BMP180;1641;51.306;12.384;2022-09-09T00:26:47;99741.00;;;18.00
24639;BMP180;1641;51.306;12.384;2022-09-09T00:29:37;99741.00;;;18.00
24639;BMP180;1641;51.306;12.384;2022-09-09T00:32:16;99684.00;;;17.60
24639;BMP180;1641;51.306;12.384;2022-09-09T00:34:55;99728.00;;;18.00
24639;BMP180;1641;51.306;12.384;2022-09-09T00:37:25;99729.00;;;18.00
24639;BMP180;1641;51.306;12.384;2022-09-09T00:39:54;99684.00;;;18.00
24639;BMP180;1641;51.306;12.384;2022-09-09T00:42:28;99730.00;;;17.90
24639;BMP180;1641;51.306;12.384;2022-09-09T00:53:15;99680.00;;;17.90
24639;BMP180;1641;51.306;12.384;2022-09-09T00:56:13;99731.00;;;17.60
24639;BMP180;1641;51.306;12.384;2022-09-09T00:58:53;99730.00;;;17.40
24639;BMP180;1641;51.306;12.384;2022-09-09T01:01:23;99676.00;;;17.50
24639;BMP180;1641;51.306;12.384;2022-09-09T01:03:53;99717.00;;;17.00
24639;BMP180;1641;51.306;12.384;2022-09-09T01:09:21;99730.00;;;17.20
24639;BMP180;1641;51.306;12.384;2022-09-09T01:11:55;99734.00;;;17.30
24639;BMP180;1641;51.306;12.384;2022-09-09T01:17:05;99728.00;;;17.40
24639;BMP180;1641;51.306;12.384;2022-09-09T01:22:40;99714.00;;;17.20
24639;BMP180;1641;51.306;12.384;2022-09-09T01:25:29;99723.00;;;17.10
24639;BMP180;1641;51.306;12.384;2022-09-09T01:28:03;99718.00;;;17.00
24639;BMP180;1641;51.306;12.384;2022-09-09T01:30:33;99723.00;;;17.40
24639;BMP180;1641;51.306;12.384;2022-09-09T01:32:59;99682.00;;;17.30
24639;BMP180;1641;51.306;12.384;2022-09-09T01:37:56;99724.00;;;17.30
24639;BMP180;1641;51.306;12.384;2022-09-09T01:40:23;99673.00;;;17.30
24639;BMP180;1641;51.306;12.384;2022-09-09T01:42:48;99718.00;;;17.50
24639;BMP180;1641;51.306;12.384;2022-09-09T01:45:14;99710.00;;;17.40
24639;BMP180;1641;51.306;12.384;2022-09-09T01:47:39;99718.00;;;17.10
24639;BMP180;1641;51.306;12.384;2022-09-09T01:50:07;99724.00;;;17.20
24639;BMP180;1641;51.306;12.384;2022-09-09T01:52:36;99710.00;;;17.40
24639;BMP180;1641;51.306;12.384;2022-09-09T01:55:03;99662.00;;;17.30
24639;BMP180;1641;51.306;12.384;2022-09-09T01:57:33;99716.00;;;17.30
24639;BMP180;1641;51.306;12.384;2022-09-09T02:00:07;99704.00;;;17.50
24639;BMP180;1641;51.306;12.384;2022-09-09T02:05:29;99708.00;;;17.60
24639;BMP180;1641;51.306;12.384;2022-09-09T02:08:16;99720.00;;;17.50
24639;BMP180;1641;51.306;12.384;2022-09-09T02:13:18;99667.00;;;17.40
24639;BMP180;1641;51.306;12.384;2022-09-09T02:16:12;99712.00;;;17.50
24639;BMP180;1641;51.306;12.384;2022-09-09T02:21:07;99717.00;;;17.20
24639;BMP180;1641;51.306;12.384;2022-09-09T02:23:36;99729.00;;;17.20
24639;BMP180;1641;51.306;12.384;2022-09-09T02:26:01;99737.00;;;17.30
24639;BMP180;1641;51.306;12.384;2022-09-09T02:28:30;99736.00;;;17.40
24639;BMP180;1641;51.306;12.384;2022-09-09T02:30:56;99674.00;;;17.40
24639;BMP180;1641;51.306;12.384;2022-09-09T02:33:27;99737.00;;;17.20
24639;BMP180;1641;51.306;12.384;2022-09-09T02:35:53;99702.00;;;17.40
24639;BMP180;1641;51.306;12.384;2022-09-09T02:38:23;99723.00;;;17.30
24639;BMP180;1641;51.306;12.384;2022-09-09T02:40:51;99722.00;;;17.20
24639;BMP180;1641;51.306;12.384;2022-09-09T02:43:17;99726.00;;;17.10
24639;BMP180;1641;51.306;12.384;2022-09-09T02:46:47;99728.00;;;17.20
24639;BMP180;1641;51.306;12.384;2022-09-09T02:49:10;99691.00;;;17.40
24639;BMP180;1641;51.306;12.384;2022-09-09T02:51:45;99728.00;;;17.20
24639;BMP180;1641;51.306;12.384;2022-09-09T02:54:27;99724.00;;;17.30
24639;BMP180;1641;51.306;12.384;2022-09-09T02:57:02;99712.00;;;17.30
24639;BMP180;1641;51.306;12.384;2022-09-09T02:59:29;99705.00;;;17.20
24639;BMP180;1641;51.306;12.384;2022-09-09T03:01:55;99731.00;;;17.00
24639;BMP180;1641;51.306;12.384;2022-09-09T03:04:21;99708.00;;;17.30
24639;BMP180;1641;51.306;12.384;2022-09-09T03:06:46;99735.00;;;17.30
24639;BMP180;1641;51.306;12.384;2022-09-09T03:09:11;99734.00;;;17.30
24639;BMP180;1641;51.306;12.384;2022-09-09T03:11:37;99727.00;;;17.10
24639;BMP180;1641;51.306;12.384;2022-09-09T03:14:03;99691.00;;;17.10
24639;BMP180;1641;51.306;12.384;2022-09-09T03:16:29;99735.00;;;17.20
24639;BMP180;1641;51.306;12.384;2022-09-09T03:18:55;99717.00;;;17.00
24639;BMP180;1641;51.306;12.384;2022-09-09T03:21:20;99714.00;;;17.00
24639;BMP180;1641;51.306;12.384;2022-09-09T03:23:46;99689.00;;;17.10
24639;BMP180;1641;51.306;12.384;2022-09-09T03:26:11;99726.00;;;17.10
24639;BMP180;1641;51.306;12.384;2022-09-09T03:28:37;99727.00;;;17.10
24639;BMP180;1641;51.306;12.384;2022-09-09T03:31:04;99730.00;;;17.20
24639;BMP180;1641;51.306;12.384;2022-09-09T03:33:30;99728.00;;;17.30
24639;BMP180;1641;51.306;12.384;2022-09-09T03:35:56;99692.00;;;17.20
24639;BMP180;1641;51.306;12.384;2022-09-09T03:38:25;99727.00;;;17.20
24639;BMP180;1641;51.306;12.384;2022-09-09T03:40:55;99723.00;;;17.00
24639;BMP180;1641;51.306;12.384;2022-09-09T03:43:22;99717.00;;;17.20
24639;BMP180;1641;51.306;12.384;2022-09-09T03:45:47;99726.00;;;17.10
24639;BMP180;1641;51.306;12.384;2022-09-09T03:48:14;99715.00;;;17.20
24639;BMP180;1641;51.306;12.384;2022-09-09T03:50:47;99715.00;;;17.10
24639;BMP180;1641;51.306;12.384;2022-09-09T03:53:14;99711.00;;;17.20
24639;BMP180;1641;51.306;12.384;2022-09-09T03:55:43;99708.00;;;17.20
24639;BMP180;1641;51.306;12.384;2022-09-09T03:58:09;99708.00;;;17.20
24639;BMP180;1641;51.306;12.384;2022-09-09T04:00:35;99722.00;;;17.10
24639;BMP180;1641;51.306;12.384;2022-09-09T04:03:01;99712.00;;;17.00
24639;BMP180;1641;51.306;12.384;2022-09-09T04:05:26;99717.00;;;17.00
24639;BMP180;1641;51.306;12.384;2022-09-09T04:07:52;99690.00;;;16.90
24639;BMP180;1641;51.306;12.384;2022-09-09T04:10:17;99680.00;;;16.70
24639;BMP180;1641;51.306;12.384;2022-09-09T04:12:42;99717.00;;;17.00
24639;BMP180;1641;51.306;12.384;2022-09-09T04:15:08;99723.00;;;16.60
24639;BMP180;1641;51.306;12.384;2022-09-09T04:17:34;99688.00;;;17.00
24639;BMP180;1641;51.306;12.384;2022-09-09T04:20:01;99711.00;;;17.00
24639;BMP180;1641;51.306;12.384;2022-09-09T04:22:26;99721.00;;;17.00
24639;BMP180;1641;51.306;12.384;2022-09-09T04:24:52;99699.00;;;16.90
24639;BMP180;1641;51.306;12.384;2022-09-09T04:27:17;99720.00;;;17.20
24639;BMP180;1641;51.306;12.384;2022-09-09T04:29:42;99723.00;;;16.80
24639;BMP180;1641;51.306;12.384;2022-09-09T04:32:07;99717.00;;;16.80
24639;BMP180;1641;51.306;12.384;2022-09-09T04:34:33;99726.00;;;17.00
24639;BMP180;1641;51.306;12.384;2022-09-09T04:36:58;99675.00;;;17.00
24639;BMP180;1641;51.306;12.384;2022-09-09T04:39:24;99726.00;;;17.00
24639;BMP180;1641;51.306;12.384;2022-09-09T04:41:49;99727.00;;;17.00
24639;BMP180;1641;51.306;12.384;2022-09-09T04:44:15;99725.00;;;17.10
24639;BMP180;1641;51.306;12.384;2022-09-09T04:46:40;99725.00;;;17.10
24639;BMP180;1641;51.306;12.384;2022-09-09T04:49:06;99731.00;;;17.00
24639;BMP180;1641;51.306;12.384;2022-09-09T04:51:31;99727.00;;;17.20
24639;BMP180;1641;51.306;12.384;2022-09-09T04:53:57;99717.00;;;17.30
24639;BMP180;1641;51.306;12.384;2022-09-09T04:56:22;99726.00;;;17.20
24639;BMP180;1641;51.306;12.384;2022-09-09T04:58:47;99729.00;;;17.10
24639;BMP180;1641;51.306;12.384;2022-09-09T05:01:15;99728.00;;;17.20
24639;BMP180;1641;51.306;12.384;2022-09-09T05:03:43;99729.00;;;17.30
24639;BMP180;1641;51.306;12.384;2022-09-09T05:06:12;99747.00;;;17.30
24639;BMP180;1641;51.306;12.384;2022-09-09T05:08:39;99726.00;;;17.30
24639;BMP180;1641;51.306;12.384;2022-09-09T05:11:18;99743.00;;;17.30
24639;BMP180;1641;51.306;12.384;2022-09-09T05:13:45;99747.00;;;17.50
24639;BMP180;1641;51.306;12.384;2022-09-09T05:16:11;99733.00;;;17.90
24639;BMP180;1641;51.306;12.384;2022-09-09T05:18:40;99729.00;;;18.00
24639;BMP180;1641;51.306;12.384;2022-09-09T05:21:06;99729.00;;;18.10
24639;BMP180;1641;51.306;12.384;2022-09-09T05:23:33;99727.00;;;18.00
24639;BMP180;1641;51.306;12.384;2022-09-09T05:25:59;99751.00;;;18.10
24639;BMP180;1641;51.306;12.384;2022-09-09T05:28:25;99747.00;;;17.90
24639;BMP180;1641;51.306;12.384;2022-09-09T05:30:58;99768.00;;;18.00
24639;BMP180;1641;51.306;12.384;2022-09-09T05:33:26;99741.00;;;18.10
24639;BMP180;1641;51.306;12.384;2022-09-09T05:35:58;99752.00;;;18.30
24639;BMP180;1641;51.306;12.384;2022-09-09T05:38:24;99729.00;;;18.20
24639;BMP180;1641;51.306;12.384;2022-09-09T05:40:51;99756.00;;;18.40
24639;BMP180;1641;51.306;12.384;2022-09-09T05:43:17;99757.00;;;18.50
24639;BMP180;1641;51.306;12.384;2022-09-09T05:45:42;99751.00;;;18.40
24639;BMP180;1641;51.306;12.384;2022-09-09T05:48:07;99750.00;;;18.50
24639;BMP180;1641;51.306;12.384;2022-09-09T05:50:33;99748.00;;;18.70
24639;BMP180;1641;51.306;12.384;2022-09-09T05:52:58;99745.00;;;18.60
24639;BMP180;1641;51.306;12.384;2022-09-09T05:55:24;99744.00;;;18.70
24639;BMP180;1641;51.306;12.384;2022-09-09T05:57:50;99729.00;;;18.70
24639;BMP180;1641;51.306;12.384;2022-09-09T06:00:17;99754.00;;;19.00
24639;BMP180;1641;51.306;12.384;2022-09-09T06:02:43;99732.00;;;18.60
24639;BMP180;1641;51.306;12.384;2022-09-09T06:05:08;99704.00;;;18.90
24639;BMP180;1641;51.306;12.384;2022-09-09T06:07:35;99757.00;;;18.70
24639;BMP180;1641;51.306;12.384;2022-09-09T06:10:01;99753.00;;;19.10
24639;BMP180;1641;51.306;12.384;2022-09-09T06:12:26;99752.00;;;19.30
24639;BMP180;1641;51.306;12.384;2022-09-09T06:14:51;99743.00;;;19.10
24639;BMP180;1641;51.306;12.384;2022-09-09T06:17:17;99763.00;;;19.00
24639;BMP180;1641;51.306;12.384;2022-09-09T06:19:42;99758.00;;;18.70
24639;BMP180;1641;51.306;12.384;2022-09-09T06:22:07;99747.00;;;19.30
24639;BMP180;1641;51.306;12.384;2022-09-09T06:24:34;99757.00;;;19.40
24639;BMP180;1641;51.306;12.384;2022-09-09T06:26:59;99749.00;;;19.30
24639;BMP180;1641;51.306;12.384;2022-09-09T06:29:25;99745.00;;;19.20
24639;BMP180;1641;51.306;12.384;2022-09-09T06:31:50;99748.00;;;19.40
24639;BMP180;1641;51.306;12.384;2022-09-09T06:34:15;99752.00;;;19.50
24639;BMP180;1641;51.306;12.384;2022-09-09T06:36:41;99754.00;;;19.60
24639;BMP180;1641;51.306;12.384;2022-09-09T06:39:07;99759.00;;;19.60
24639;BMP180;1641;51.306;12.384;2022-09-09T06:41:33;99754.00;;;19.60
24639;BMP180;1641;51.306;12.384;2022-09-09T06:43:59;99735.00;;;19.60
24639;BMP180;1641;51.306;12.384;2022-09-09T06:46:29;99765.00;;;19.80
24639;BMP180;1641;51.306;12.384;2022-09-09T06:48:55;99747.00;;;19.80
24639;BMP180;1641;51.306;12.384;2022-09-09T06:51:28;99762.00;;;20.10
24639;BMP180;1641;51.306;12.384;2022-09-09T06:53:56;99763.00;;;20.00
24639;BMP180;1641;51.306;12.384;2022-09-09T06:56:27;99767.00;;;20.20
24639;BMP180;1641;51.306;12.384;2022-09-09T06:58:58;99743.00;;;20.40
24639;BMP180;1641;51.306;12.384;2022-09-09T07:01:31;99765.00;;;21.40
24639;BMP180;1641;51.306;12.384;2022-09-09T07:04:00;99771.00;;;22.70
24639;BMP180;1641;51.306;12.384;2022-09-09T07:06:28;99777.00;;;23.30
24639;BMP180;1641;51.306;12.384;2022-09-09T07:08:55;99760.00;;;23.10
24639;BMP180;1641;51.306;12.384;2022-09-09T07:11:26;99775.00;;;22.40
24639;BMP180;1641;51.306;12.384;2022-09-09T07:13:52;99770.00;;;22.50
24639;BMP180;1641;51.306;12.384;2022-09-09T07:16:19;99765.00;;;22.70
24639;BMP180;1641;51.306;12.384;2022-09-09T07:18:45;99744.00;;;23.40
24639;BMP180;1641;51.306;12.384;2022-09-09T07:21:13;99770.00;;;23.70
24639;BMP180;1641;51.306;12.384;2022-09-09T07:23:39;99760.00;;;25.50
24639;BMP180;1641;51.306;12.384;2022-09-09T07:26:14;99758.00;;;25.90
24639;BMP180;1641;51.306;12.384;2022-09-09T07:28:39;99771.00;;;25.80
24639;BMP180;1641;51.306;12.384;2022-09-09T07:31:07;99761.00;;;27.30
24639;BMP180;1641;51.306;12.384;2022-09-09T07:33:36;99766.00;;;27.80
24639;BMP180;1641;51.306;12.384;2022-09-09T07:36:04;99764.00;;;27.20
24639;BMP180;1641;51.306;12.384;2022-09-09T07:38:31;99774.00;;;25.70
24639;BMP180;1641;51.306;12.384;2022-09-09T07:41:07;99779.00;;;26.20
24639;BMP180;1641;51.306;12.384;2022-09-09T07:43:38;99772.00;;;25.40
24639;BMP180;1641;51.306;12.384;2022-09-09T07:46:11;99768.00;;;25.20
24639;BMP180;1641;51.306;12.384;2022-09-09T07:48:38;99781.00;;;24.50
24639;BMP180;1641;51.306;12.384;2022-09-09T07:51:10;99779.00;;;24.00
24639;BMP180;1641;51.306;12.384;2022-09-09T07:53:40;99774.00;;;25.40
24639;BMP180;1641;51.306;12.384;2022-09-09T07:56:08;99774.00;;;26.20
24639;BMP180;1641;51.306;12.384;2022-09-09T07:58:35;99780.00;;;28.10
24639;BMP180;1641;51.306;12.384;2022-09-09T08:01:15;99786.00;;;29.60
24639;BMP180;1641;51.306;12.384;2022-09-09T08:03:43;99798.00;;;29.10
24639;BMP180;1641;51.306;12.384;2022-09-09T08:06:15;99801.00;;;29.20
24639;BMP180;1641;51.306;12.384;2022-09-09T08:08:41;99803.00;;;27.90
24639;BMP180;1641;51.306;12.384;2022-09-09T08:11:13;99801.00;;;28.20
24639;BMP180;1641;51.306;12.384;2022-09-09T08:13:43;99800.00;;;28.60
24639;BMP180;1641;51.306;12.384;2022-09-09T08:16:16;99800.00;;;29.60
24639;BMP180;1641;51.306;12.384;2022-09-09T08:18:45;99806.00;;;28.40
24639;BMP180;1641;51.306;12.384;2022-09-09T08:21:16;99806.00;;;28.60
24639;BMP180;1641;51.306;12.384;2022-09-09T08:23:46;99809.00;;;28.30
24639;BMP180;1641;51.306;12.384;2022-09-09T08:26:16;99809.00;;;27.80
24639;BMP180;1641;51.306;12.384;2022-09-09T08:28:43;99817.00;;;27.60
24639;BMP180;1641;51.306;12.384;2022-09-09T08:31:14;99809.00;;;28.70
24639;BMP180;1641;51.306;12.384;2022-09-09T08:33:40;99805.00;;;27.40
24639;BMP180;1641;51.306;12.384;2022-09-09T08:36:09;99800.00;;;27.10
24639;BMP180;1641;51.306;12.384;2022-09-09T08:38:35;99796.00;;;26.90
24639;BMP180;1641;51.306;12.384;2022-09-09T08:41:27;99805.00;;;26.90
24639;BMP180;1641;51.306;12.384;2022-09-09T08:44:27;99798.00;;;27.20
24639;BMP180;1641;51.306;12.384;2022-09-09T08:47:18;99824.00;;;26.60
24639;BMP180;1641;51.306;12.384;2022-09-09T08:50:19;99826.00;;;27.50
24639;BMP180;1641;51.306;12.384;2022-09-09T08:53:19;99810.00;;;29.00
24639;BMP180;1641;51.306;12.384;2022-09-09T08:55:52;99801.00;;;31.00
24639;BMP180;1641;51.306;12.384;2022-09-09T08:58:28;99806.00;;;31.70
24639;BMP180;1641;51.306;12.384;2022-09-09T09:01:02;99812.00;;;31.10
24639;BMP180;1641;51.306;12.384;2022-09-09T09:03:55;99820.00;;;31.00
24639;BMP180;1641;51.306;12.384;2022-09-09T09:09:29;99773.00;;;30.50
24639;BMP180;1641;51.306;12.384;2022-09-09T09:11:58;99817.00;;;31.40
24639;BMP180;1641;51.306;12.384;2022-09-09T09:14:34;99802.00;;;31.50
24639;BMP180;1641;51.306;12.384;2022-09-09T09:17:03;99819.00;;;32.20
24639;BMP180;1641;51.306;12.384;2022-09-09T09:19:31;99811.00;;;32.20
24639;BMP180;1641;51.306;12.384;2022-09-09T09:22:26;99808.00;;;32.60
24639;BMP180;1641;51.306;12.384;2022-09-09T09:30:29;99797.00;;;29.90
24639;BMP180;1641;51.306;12.384;2022-09-09T09:33:00;99811.00;;;28.20
24639;BMP180;1641;51.306;12.384;2022-09-09T09:35:29;99817.00;;;27.60
24639;BMP180;1641;51.306;12.384;2022-09-09T09:37:54;99811.00;;;27.80
24639;BMP180;1641;51.306;12.384;2022-09-09T09:40:21;99812.00;;;27.80
24639;BMP180;1641;51.306;12.384;2022-09-09T09:42:58;99820.00;;;28.10
24639;BMP180;1641;51.306;12.384;2022-09-09T09:45:35;99813.00;;;27.70
24639;BMP180;1641;51.306;12.384;2022-09-09T09:48:09;99811.00;;;27.00
24639;BMP180;1641;51.306;12.384;2022-09-09T09:50:50;99811.00;;;26.80
24639;BMP180;1641;51.306;12.384;2022-09-09T09:53:25;99820.00;;;26.80
24639;BMP180;1641;51.306;12.384;2022-09-09T09:56:03;99811.00;;;26.60
24639;BMP180;1641;51.306;12.384;2022-09-09T10:03:51;99820.00;;;25.80
24639;BMP180;1641;51.306;12.384;2022-09-09T10:06:16;99818.00;;;26.20
24639;BMP180;1641;51.306;12.384;2022-09-09T10:08:45;99818.00;;;26.40
24639;BMP180;1641;51.306;12.384;2022-09-09T10:11:46;99825.00;;;25.20
24639;BMP180;1641;51.306;12.384;2022-09-09T10:17:23;99822.00;;;25.30
24639;BMP180;1641;51.306;12.384;2022-09-09T10:22:26;99817.00;;;25.90
24639;BMP180;1641;51.306;12.384;2022-09-09T10:27:39;99810.00;;;25.10
24639;BMP180;1641;51.306;12.384;2022-09-09T10:30:39;99812.00;;;25.10
24639;BMP180;1641;51.306;12.384;2022-09-09T10:33:10;99807.00;;;25.20
24639;BMP180;1641;51.306;12.384;2022-09-09T10:35:53;99798.00;;;24.90
24639;BMP180;1641;51.306;12.384;2022-09-09T10:38:45;99792.00;;;25.00
24639;BMP180;1641;51.306;12.384;2022-09-09T10:41:16;99793.00;;;25.00
24639;BMP180;1641;51.306;12.384;2022-09-09T10:44:02;99795.00;;;25.20
24639;BMP180;1641;51.306;12.384;2022-09-09T10:49:47;99789.00;;;25.70
24639;BMP180;1641;51.306;12.384;2022-09-09T10:55:12;99787.00;;;25.10
24639;BMP180;1641;51.306;12.384;2022-09-09T10:57:45;99771.00;;;25.20
24639;BMP180;1641;51.306;12.384;2022-09-09T11:00:21;99784.00;;;24.40
24639;BMP180;1641;51.306;12.384;2022-09-09T11:03:00;99782.00;;;24.70
24639;BMP180;1641;51.306;12.384;2022-09-09T11:05:42;99787.00;;;25.20
24639;BMP180;1641;51.306;12.384;2022-09-09T11:08:19;99775.00;;;24.60
24639;BMP180;1641;51.306;12.384;2022-09-09T11:10:56;99786.00;;;24.60
24639;BMP180;1641;51.306;12.384;2022-09-09T11:13:29;99781.00;;;25.00
24639;BMP180;1641;51.306;12.384;2022-09-09T11:18:43;99777.00;;;25.00
24639;BMP180;1641;51.306;12.384;2022-09-09T11:21:26;99782.00;;;24.80
24639;BMP180;1641;51.306;12.384;2022-09-09T11:24:00;99778.00;;;24.90
24639;BMP180;1641;51.306;12.384;2022-09-09T11:26:35;99769.00;;;25.10
24639;BMP180;1641;51.306;12.384;2022-09-09T11:29:28;99767.00;;;24.90
24639;BMP180;1641;51.306;12.384;2022-09-09T11:32:26;99764.00;;;25.30
24639;BMP180;1641;51.306;12.384;2022-09-09T11:38:15;99762.00;;;26.20
24639;BMP180;1641;51.306;12.384;2022-09-09T11:40:41;99759.00;;;26.30
24639;BMP180;1641;51.306;12.384;2022-09-09T11:43:10;99749.00;;;25.40
24639;BMP180;1641;51.306;12.384;2022-09-09T11:45:37;99758.00;;;25.20
24639;BMP180;1641;51.306;12.384;2022-09-09T11:48:03;99756.00;;;24.70
24639;BMP180;1641;51.306;12.384;2022-09-09T11:50:35;99723.00;;;24.20
24639;BMP180;1641;51.306;12.384;2022-09-09T11:55:39;99769.00;;;23.90
24639;BMP180;1641;51.306;12.384;2022-09-09T12:00:43;99758.00;;;25.10
24639;BMP180;1641;51.306;12.384;2022-09-09T12:03:43;99759.00;;;25.50
24639;BMP180;1641;51.306;12.384;2022-09-09T12:06:14;99751.00;;;25.60
24639;BMP180;1641;51.306;12.384;2022-09-09T12:08:43;99749.00;;;25.40
24639;BMP180;1641;51.306;12.384;2022-09-09T12:11:08;99745.00;;;25.50
24639;BMP180;1641;51.306;12.384;2022-09-09T12:13:34;99753.00;;;25.40
24639;BMP180;1641;51.306;12.384;2022-09-09T12:16:00;99754.00;;;25.00
24639;BMP180;1641;51.306;12.384;2022-09-09T12:18:38;99750.00;;;24.70
24639;BMP180;1641;51.306;12.384;2022-09-09T12:21:21;99751.00;;;25.10
24639;BMP180;1641;51.306;12.384;2022-09-09T12:23:55;99753.00;;;24.50
24639;BMP180;1641;51.306;12.384;2022-09-09T12:26:47;99740.00;;;24.60
24639;BMP180;1641;51.306;12.384;2022-09-09T12:36:54;99730.00;;;25.80
24639;BMP180;1641;51.306;12.384;2022-09-09T12:39:33;99736.00;;;26.00
24639;BMP180;1641;51.306;12.384;2022-09-09T12:42:00;99727.00;;;26.10
24639;BMP180;1641;51.306;12.384;2022-09-09T12:44:26;99727.00;;;26.00
24639;BMP180;1641;51.306;12.384;2022-09-09T12:46:57;99733.00;;;25.60
24639;BMP180;1641;51.306;12.384;2022-09-09T12:49:36;99733.00;;;25.50
24639;BMP180;1641;51.306;12.384;2022-09-09T12:52:27;99726.00;;;25.30
24639;BMP180;1641;51.306;12.384;2022-09-09T12:54:55;99724.00;;;25.50
24639;BMP180;1641;51.306;12.384;2022-09-09T12:57:23;99720.00;;;25.70
24639;BMP180;1641;51.306;12.384;2022-09-09T12:59:50;99716.00;;;25.90
24639;BMP180;1641;51.306;12.384;2022-09-09T13:02:20;99716.00;;;26.20
24639;BMP180;1641;51.306;12.384;2022-09-09T13:04:46;99725.00;;;26.30
24639;BMP180;1641;51.306;12.384;2022-09-09T13:07:13;99716.00;;;26.00
24639;BMP180;1641;51.306;12.384;2022-09-09T13:09:41;99689.00;;;25.20
24639;BMP180;1641;51.306;12.384;2022-09-09T13:12:13;99716.00;;;25.40
24639;BMP180;1641;51.306;12.384;2022-09-09T13:14:39;99710.00;;;26.20
24639;BMP180;1641;51.306;12.384;2022-09-09T13:17:18;99705.00;;;25.70
24639;BMP180;1641;51.306;12.384;2022-09-09T13:19:44;99691.00;;;25.90
24639;BMP180;1641;51.306;12.384;2022-09-09T13:22:18;99689.00;;;26.00
24639;BMP180;1641;51.306;12.384;2022-09-09T13:24:44;99702.00;;;26.00
24639;BMP180;1641;51.306;12.384;2022-09-09T13:27:31;99698.00;;;25.80
24639;BMP180;1641;51.306;12.384;2022-09-09T13:29:57;99705.00;;;25.80
24639;BMP180;1641;51.306;12.384;2022-09-09T13:32:24;99712.00;;;25.60
24639;BMP180;1641;51.306;12.384;2022-09-09T13:35:00;99709.00;;;25.80
24639;BMP180;1641;51.306;12.384;2022-09-09T13:37:39;99697.00;;;25.40
24639;BMP180;1641;51.306;12.384;2022-09-09T13:40:17;99703.00;;;25.90
24639;BMP180;1641;51.306;12.384;2022-09-09T13:42:44;99708.00;;;26.20
24639;BMP180;1641;51.306;12.384;2022-09-09T13:45:21;99711.00;;;25.50
24639;BMP180;1641;51.306;12.384;2022-09-09T13:47:47;99695.00;;;26.00
24639;BMP180;1641;51.306;12.384;2022-09-09T13:50:25;99716.00;;;26.20
24639;BMP180;1641;51.306;12.384;2022-09-09T13:52:55;99723.00;;;25.80
24639;BMP180;1641;51.306;12.384;2022-09-09T13:55:24;99743.00;;;25.20
24639;BMP180;1641;51.306;12.384;2022-09-09T13:58:00;99759.00;;;24.60
24639;BMP180;1641;51.306;12.384;2022-09-09T14:00:26;99781.00;;;22.90
24639;BMP180;1641;51.306;12.384;2022-09-09T14:02:51;99772.00;;;21.50
24639;BMP180;1641;51.306;12.384;2022-09-09T14:05:17;99783.00;;;20.80
24639;BMP180;1641;51.306;12.384;2022-09-09T14:07:43;99758.00;;;19.40
24639;BMP180;1641;51.306;12.384;2022-09-09T14:10:10;99748.00;;;19.90
24639;BMP180;1641;51.306;12.384;2022-09-09T14:12:35;99748.00;;;20.60
24639;BMP180;1641;51.306;12.384;2022-09-09T14:15:05;99742.00;;;20.70
24639;BMP180;1641;51.306;12.384;2022-09-09T14:17:31;99749.00;;;20.50
24639;BMP180;1641;51.306;12.384;2022-09-09T14:19:59;99734.00;;;20.70
24639;BMP180;1641;51.306;12.384;2022-09-09T14:22:25;99739.00;;;20.60
24639;BMP180;1641;51.306;12.384;2022-09-09T14:24:50;99739.00;;;20.40
24639;BMP180;1641;51.306;12.384;2022-09-09T14:27:16;99735.00;;;20.80
24639;BMP180;1641;51.306;12.384;2022-09-09T14:29:45;99722.00;;;21.10
24639;BMP180;1641;51.306;12.384;2022-09-09T14:32:11;99722.00;;;21.50
24639;BMP180;1641;51.306;12.384;2022-09-09T14:34:46;99723.00;;;21.50
24639;BMP180;1641;51.306;12.384;2022-09-09T14:37:13;99726.00;;;21.40
24639;BMP180;1641;51.306;12.384;2022-09-09T14:39:38;99722.00;;;21.80
24639;BMP180;1641;51.306;12.384;2022-09-09T14:42:03;99722.00;;;21.70
24639;BMP180;1641;51.306;12.384;2022-09-09T14:44:29;99698.00;;;21.90
24639;BMP180;1641;51.306;12.384;2022-09-09T14:46:54;99710.00;;;22.20
24639;BMP180;1641;51.306;12.384;2022-09-09T14:49:20;99704.00;;;22.50
24639;BMP180;1641;51.306;12.384;2022-09-09T14:51:45;99704.00;;;22.80
24639;BMP180;1641;51.306;12.384;2022-09-09T14:54:11;99707.00;;;22.80
24639;BMP180;1641;51.306;12.384;2022-09-09T14:56:37;99708.00;;;23.00
24639;BMP180;1641;51.306;12.384;2022-09-09T14:59:03;99697.00;;;22.80
24639;BMP180;1641;51.306;12.384;2022-09-09T15:01:30;99698.00;;;22.80
24639;BMP180;1641;51.306;12.384;2022-09-09T15:04:00;99701.00;;;23.20
24639;BMP180;1641;51.306;12.384;2022-09-09T15:06:28;99705.00;;;23.40
24639;BMP180;1641;51.306;12.384;2022-09-09T15:08:54;99712.00;;;23.40
24639;BMP180;1641;51.306;12.384;2022-09-09T15:11:23;99709.00;;;23.50
24639;BMP180;1641;51.306;12.384;2022-09-09T15:14:01;99711.00;;;23.50
24639;BMP180;1641;51.306;12.384;2022-09-09T15:16:28;99707.00;;;23.70
24639;BMP180;1641;51.306;12.384;2022-09-09T15:18:56;99711.00;;;23.80
24639;BMP180;1641;51.306;12.384;2022-09-09T15:21:23;99715.00;;;24.20
24639;BMP180;1641;51.306;12.384;2022-09-09T15:23:49;99713.00;;;24.20
24639;BMP180;1641;51.306;12.384;2022-09-09T15:26:16;99688.00;;;24.00
24639;BMP180;1641;51.306;12.384;2022-09-09T15:28:43;99717.00;;;23.80
24639;BMP180;1641;51.306;12.384;2022-09-09T15:31:16;99709.00;;;23.70
24639;BMP180;1641;51.306;12.384;2022-09-09T15:36:23;99712.00;;;23.60
24639;BMP180;1641;51.306;12.384;2022-09-09T15:38:49;99705.00;;;23.90
24639;BMP180;1641;51.306;12.384;2022-09-09T15:41:18;99712.00;;;24.10
24639;BMP180;1641;51.306;12.384;2022-09-09T15:43:46;99713.00;;;23.70
24639;BMP180;1641;51.306;12.384;2022-09-09T15:48:44;99698.00;;;24.20
24639;BMP180;1641;51.306;12.384;2022-09-09T15:51:10;99692.00;;;24.40
24639;BMP180;1641;51.306;12.384;2022-09-09T15:53:39;99703.00;;;24.40
24639;BMP180;1641;51.306;12.384;2022-09-09T15:56:08;99701.00;;;24.10